Time;durP1;ratioP1;P1;durP2;ratioP2;P2;SDS_P1;SDS_P2;PMS_P1;PMS_P2;Temp;Humidity;BMP_temperature;BMP_pressure;BME280_temperature;BME280_humidity;BME280_pressure;Samples;Min_cycle;Max_cycle;Signal;HPM_P1;HPM_P2
2020/12/21 00:00:59;;;;;;;7.20;5.90;;;9.40;99.90;;;;;;5068501;28;20189;-58
2020/12/21 00:03:24;;;;;;;6.80;6.20;;;9.50;99.90;;;;;;5068049;28;20184;-57
2020/12/21 00:05:50;;;;;;;6.57;6.00;;;9.40;99.90;;;;;;5068147;28;20629;-58
2020/12/21 00:08:15;;;;;;;6.90;5.57;;;9.50;99.90;;;;;;5069045;28;20260;-58
2020/12/21 00:10:41;;;;;;;6.63;6.03;;;9.70;99.90;;;;;;5068752;28;20227;-58
2020/12/21 00:13:07;;;;;;;6.40;5.80;;;9.50;99.90;;;;;;5068161;28;20216;-59
2020/12/21 00:15:35;;;;;;;6.70;6.10;;;9.60;99.90;;;;;;5068309;28;20181;-58
2020/12/21 00:18:01;;;;;;;5.97;5.47;;;9.80;99.90;;;;;;5067926;28;20189;-59
2020/12/21 00:20:26;;;;;;;6.80;6.10;;;9.80;99.90;;;;;;5068539;28;20188;-58
2020/12/21 00:22:52;;;;;;;6.60;6.00;;;9.80;99.90;;;;;;5068005;28;20199;-58
2020/12/21 00:25:17;;;;;;;6.30;5.70;;;9.70;99.90;;;;;;5067951;28;20209;-59
2020/12/21 00:27:43;;;;;;;6.67;6.07;;;9.70;99.90;;;;;;5062900;28;20706;-58
2020/12/21 00:30:09;;;;;;;7.30;6.60;;;9.80;99.90;;;;;;5067707;28;20176;-58
2020/12/21 00:32:34;;;;;;;7.23;6.50;;;9.70;99.90;;;;;;5067856;28;20583;-58
2020/12/21 00:35:00;;;;;;;6.10;5.50;;;9.60;99.90;;;;;;5068202;28;20181;-58
2020/12/21 00:37:26;;;;;;;8.43;6.13;;;9.70;99.90;;;;;;5067865;28;20209;-58
2020/12/21 00:39:52;;;;;;;6.33;5.47;;;9.70;99.90;;;;;;5069186;28;20634;-58
2020/12/21 00:42:18;;;;;;;6.57;5.83;;;9.60;99.90;;;;;;5067979;28;20435;-58
2020/12/21 00:44:43;;;;;;;7.05;5.40;;;9.80;99.90;;;;;;5067740;28;20209;-58
2020/12/21 00:47:09;;;;;;;6.33;5.73;;;9.60;99.90;;;;;;5068936;28;20201;-58
2020/12/21 00:49:35;;;;;;;5.73;5.17;;;9.80;99.90;;;;;;5067696;28;20658;-58
2020/12/21 00:52:01;;;;;;;8.33;4.70;;;9.70;99.90;;;;;;5067887;28;20226;-58
2020/12/21 00:54:27;;;;;;;5.90;5.35;;;9.30;99.90;;;;;;5068031;28;20621;-58
2020/12/21 00:56:57;;;;;;;5.10;4.60;;;9.60;99.90;;;;;;5067667;28;20225;-58
2020/12/21 00:59:22;;;;;;;8.20;4.93;;;9.40;99.90;;;;;;5066474;28;20513;-58
2020/12/21 01:01:48;;;;;;;5.60;5.00;;;9.30;99.90;;;;;;5062831;28;20178;-58
2020/12/21 01:04:14;;;;;;;5.47;4.97;;;9.50;99.90;;;;;;5068009;28;20189;-58
2020/12/21 01:06:39;;;;;;;5.63;5.13;;;9.60;99.90;;;;;;5067837;28;20251;-58
2020/12/21 01:09:10;;;;;;;4.80;4.40;;;9.30;99.90;;;;;;5069601;28;20185;-58
2020/12/21 01:11:36;;;;;;;4.40;4.00;;;9.40;99.90;;;;;;5071586;28;20242;-58
2020/12/21 01:14:03;;;;;;;4.38;4.00;;;9.60;99.90;;;;;;5071324;28;20185;-58
2020/12/21 01:16:28;;;;;;;4.82;4.43;;;9.50;99.90;;;;;;5071318;28;20712;-57
2020/12/21 01:18:54;;;;;;;4.60;4.20;;;9.60;99.90;;;;;;5070993;28;20298;-58
2020/12/21 01:21:31;;;;;;;4.30;3.80;;;9.70;99.90;;;;;;5072808;28;20851;-58
2020/12/21 01:23:59;;;;;;;4.93;4.15;;;9.60;99.90;;;;;;5071143;28;20238;-58
2020/12/21 01:26:25;;;;;;;5.05;4.38;;;9.50;99.90;;;;;;5071009;28;20220;-58
2020/12/21 01:28:51;;;;;;;4.32;3.92;;;9.70;99.90;;;;;;5070561;28;20173;-59
2020/12/21 01:31:18;;;;;;;4.80;4.23;;;9.50;99.90;;;;;;5070993;28;20177;-58
2020/12/21 01:33:45;;;;;;;5.03;4.63;;;9.30;99.90;;;;;;5070899;28;20865;-58
2020/12/21 01:36:10;;;;;;;4.25;3.85;;;9.40;99.90;;;;;;5070516;28;20520;-58
2020/12/21 01:38:36;;;;;;;4.90;4.20;;;9.30;99.90;;;;;;5070914;28;20284;-58
2020/12/21 01:41:02;;;;;;;4.30;3.90;;;9.40;99.90;;;;;;5070806;28;20184;-58
2020/12/21 01:43:27;;;;;;;5.27;4.50;;;9.30;99.90;;;;;;5070812;28;20279;-58
2020/12/21 01:45:53;;;;;;;5.90;3.80;;;9.30;99.90;;;;;;5072212;28;20591;-58
2020/12/21 01:48:20;;;;;;;4.40;4.00;;;9.30;99.90;;;;;;5070487;28;20181;-58
2020/12/21 01:50:45;;;;;;;4.32;3.92;;;9.50;99.90;;;;;;5070591;28;20212;-58
2020/12/21 01:53:11;;;;;;;4.07;3.73;;;9.30;99.90;;;;;;5071162;28;20235;-58
2020/12/21 01:55:40;;;;;;;3.87;3.57;;;9.10;99.90;;;;;;5070595;28;20888;-58
2020/12/21 01:58:06;;;;;;;4.63;4.18;;;9.30;99.90;;;;;;5070417;28;20429;-58
2020/12/21 02:00:32;;;;;;;5.53;4.15;;;9.10;99.90;;;;;;5070642;28;20188;-58
2020/12/21 02:02:58;;;;;;;4.40;4.00;;;9.10;99.90;;;;;;5070612;28;20568;-58
2020/12/21 02:05:24;;;;;;;3.75;3.45;;;9.00;99.90;;;;;;5070185;28;20545;-58
2020/12/21 02:07:50;;;;;;;5.60;3.30;;;9.20;99.90;;;;;;5064427;28;20184;-58
2020/12/21 02:10:17;;;;;;;7.03;3.72;;;8.80;99.90;;;;;;5070194;28;20181;-58
2020/12/21 02:12:42;;;;;;;4.13;3.50;;;8.80;99.90;;;;;;5070579;28;20551;-57
2020/12/21 02:15:08;;;;;;;4.00;3.70;;;8.80;99.90;;;;;;5070362;28;20185;-58
2020/12/21 02:17:33;;;;;;;4.30;3.80;;;8.90;99.90;;;;;;5070425;28;20208;-58
2020/12/21 02:19:59;;;;;;;3.50;3.20;;;8.50;99.90;;;;;;5068891;28;20188;-57
2020/12/21 02:22:25;;;;;;;3.73;3.43;;;8.10;99.90;;;;;;5070730;28;20646;-58
2020/12/21 02:24:50;;;;;;;3.60;3.30;;;8.50;99.90;;;;;;5069738;28;20258;-58
2020/12/21 02:27:16;;;;;;;3.60;3.30;;;8.60;99.90;;;;;;5070272;28;20205;-58
2020/12/21 02:29:41;;;;;;;3.67;3.37;;;8.50;99.90;;;;;;5060931;28;20311;-58
2020/12/21 02:32:09;;;;;;;3.80;3.50;;;8.40;99.90;;;;;;5070535;28;20194;-58
2020/12/21 02:34:35;;;;;;;4.35;3.60;;;7.80;99.90;;;;;;5071651;28;20184;-58
2020/12/21 02:37:00;;;;;;;4.20;3.80;;;8.00;99.90;;;;;;5069773;28;20571;-58
2020/12/21 02:39:26;;;;;;;3.90;3.53;;;8.10;99.90;;;;;;5069509;28;20181;-59
2020/12/21 02:41:52;;;;;;;4.47;4.07;;;8.10;99.90;;;;;;5069502;28;20650;-58
2020/12/21 02:44:18;;;;;;;4.05;3.42;;;8.00;99.90;;;;;;5070040;28;20173;-58
2020/12/21 02:46:44;;;;;;;3.63;3.33;;;7.90;99.90;;;;;;5069413;28;20565;-58
2020/12/21 02:49:11;;;;;;;4.10;3.70;;;8.00;99.90;;;;;;5070725;28;20918;-58
2020/12/21 02:51:37;;;;;;;3.80;3.40;;;8.00;99.90;;;;;;5069534;28;20188;-58
2020/12/21 02:54:03;;;;;;;3.63;3.27;;;7.90;99.90;;;;;;5069354;28;20185;-58
2020/12/21 02:56:29;;;;;;;3.20;3.00;;;8.10;99.90;;;;;;5069357;28;20850;-59
2020/12/21 02:58:55;;;;;;;4.10;3.77;;;7.90;99.90;;;;;;5068989;28;20595;-58
2020/12/21 03:01:20;;;;;;;3.50;3.13;;;8.40;99.90;;;;;;5069312;28;20208;-58
2020/12/21 03:03:46;;;;;;;5.47;3.40;;;7.70;99.90;;;;;;5070702;28;20434;-59
2020/12/21 03:06:11;;;;;;;4.37;3.97;;;7.60;99.90;;;;;;5068908;28;20556;-58
2020/12/21 03:08:37;;;;;;;4.47;3.70;;;8.00;99.90;;;;;;5068737;28;20450;-58
2020/12/21 03:11:02;;;;;;;3.43;3.13;;;7.90;99.90;;;;;;5069336;28;20189;-59
2020/12/21 03:13:28;;;;;;;4.03;3.63;;;7.50;99.90;;;;;;5069002;28;20181;-58
2020/12/21 03:15:54;;;;;;;4.20;3.77;;;7.80;99.90;;;;;;5068816;28;20209;-58
2020/12/21 03:18:19;;;;;;;5.47;3.30;;;7.90;99.90;;;;;;5068742;28;20189;-58
2020/12/21 03:20:45;;;;;;;4.30;3.90;;;7.70;99.90;;;;;;5069010;28;20557;-58
2020/12/21 03:23:10;;;;;;;4.30;3.90;;;7.60;99.90;;;;;;5069086;28;20184;-59
2020/12/21 03:25:36;;;;;;;4.03;3.50;;;7.50;99.90;;;;;;5068415;28;20690;-59
2020/12/21 03:28:02;;;;;;;4.27;3.87;;;7.70;99.90;;;;;;5066007;28;20175;-59
2020/12/21 03:30:27;;;;;;;4.43;4.03;;;7.60;99.90;;;;;;5068582;28;20646;-59
2020/12/21 03:32:53;;;;;;;4.67;4.17;;;7.40;99.90;;;;;;5068040;28;20238;-58
2020/12/21 03:35:19;;;;;;;7.28;4.90;;;7.40;99.90;;;;;;5068992;28;20203;-58
2020/12/21 03:37:44;;;;;;;5.03;4.37;;;7.50;99.90;;;;;;5069791;28;20292;-58
2020/12/21 03:40:10;;;;;;;4.60;4.10;;;7.60;99.90;;;;;;5068404;28;20662;-58
2020/12/21 03:42:36;;;;;;;4.73;4.20;;;7.60;99.90;;;;;;5068410;28;20189;-58
2020/12/21 03:45:03;;;;;;;5.00;4.60;;;7.20;99.90;;;;;;5068433;28;20681;-58
2020/12/21 03:47:29;;;;;;;3.92;3.53;;;7.40;99.90;;;;;;5068165;28;20204;-58
2020/12/21 03:49:57;;;;;;;4.60;3.77;;;7.40;99.90;;;;;;5068202;28;20669;-58
2020/12/21 03:52:23;;;;;;;5.05;4.55;;;7.20;99.90;;;;;;5068267;28;20642;-58
2020/12/21 03:54:49;;;;;;;4.77;4.37;;;7.20;99.90;;;;;;5069938;28;20219;-58
2020/12/21 03:57:14;;;;;;;4.60;4.13;;;7.20;99.90;;;;;;5069573;28;20207;-58
2020/12/21 03:59:40;;;;;;;4.90;4.40;;;7.20;99.90;;;;;;5068231;28;20552;-58
2020/12/21 04:02:05;;;;;;;6.03;4.80;;;7.00;99.90;;;;;;5068503;28;20686;-60
2020/12/21 04:04:31;;;;;;;5.10;4.43;;;6.40;99.90;;;;;;5067335;28;20238;-58
2020/12/21 04:06:57;;;;;;;4.40;4.00;;;6.90;99.90;;;;;;5066992;28;20570;-58
2020/12/21 04:09:22;;;;;;;4.33;3.93;;;6.80;99.90;;;;;;5068275;28;20188;-58
2020/12/21 04:11:48;;;;;;;4.13;3.73;;;6.70;99.90;;;;;;5068159;28;20215;-58
2020/12/21 04:14:13;;;;;;;4.53;4.13;;;7.10;99.90;;;;;;5069686;28;20629;-59
2020/12/21 04:16:39;;;;;;;4.70;4.30;;;6.80;99.90;;;;;;5067913;28;20212;-58
2020/12/21 04:19:05;;;;;;;4.83;4.43;;;6.60;99.90;;;;;;5068530;28;20195;-58
2020/12/21 04:21:30;;;;;;;4.73;4.33;;;6.70;99.90;;;;;;5067979;28;20654;-58
2020/12/21 04:23:56;;;;;;;5.80;4.77;;;6.70;99.90;;;;;;5067869;28;20439;-58
2020/12/21 04:26:22;;;;;;;5.83;4.10;;;6.80;99.90;;;;;;5067770;28;20231;-58
2020/12/21 04:28:47;;;;;;;4.80;4.30;;;6.70;99.90;;;;;;5067002;28;20196;-58
2020/12/21 04:31:13;;;;;;;4.00;3.60;;;6.40;99.90;;;;;;5067893;28;20180;-58
2020/12/21 04:33:38;;;;;;;4.87;4.37;;;6.70;99.90;;;;;;5068113;28;20644;-58
2020/12/21 04:36:09;;;;;;;4.63;4.13;;;6.60;99.90;;;;;;5067551;28;20653;-58
2020/12/21 04:38:35;;;;;;;4.28;3.97;;;6.60;99.90;;;;;;5067818;28;20181;-58
2020/12/21 04:41:01;;;;;;;5.38;4.38;;;6.70;99.90;;;;;;5067963;28;20172;-57
2020/12/21 04:43:27;;;;;;;5.27;4.77;;;6.70;99.90;;;;;;5069277;28;20173;-58
2020/12/21 04:45:54;;;;;;;5.90;4.75;;;6.30;99.90;;;;;;5055078;28;20242;-58
2020/12/21 04:48:23;;;;;;;5.15;4.75;;;6.60;99.90;;;;;;5071683;28;20538;-58
2020/12/21 04:50:54;;;;;;;5.75;5.20;;;6.80;99.90;;;;;;5071748;28;20178;-58
2020/12/21 04:53:23;;;;;;;5.60;5.03;;;6.70;99.90;;;;;;5071872;28;20187;-58
2020/12/21 04:55:49;;;;;;;5.43;4.45;;;6.90;99.90;;;;;;5071758;28;20196;-58
2020/12/21 04:58:15;;;;;;;5.17;4.53;;;6.80;99.90;;;;;;5072729;28;20192;-58
2020/12/21 05:00:40;;;;;;;6.20;4.57;;;7.00;99.90;;;;;;5072219;28;20245;-58
2020/12/21 05:03:07;;;;;;;4.37;3.97;;;7.10;99.90;;;;;;5072208;28;20431;-58
2020/12/21 05:05:41;;;;;;;5.10;4.60;;;7.00;99.90;;;;;;5071213;28;20197;-58
2020/12/21 05:08:10;;;;;;;5.88;4.70;;;7.10;99.90;;;;;;5065103;28;20566;-58
2020/12/21 05:10:37;;;;;;;6.05;4.55;;;7.00;99.90;;;;;;5067727;28;20180;-58
2020/12/21 05:13:04;;;;;;;5.28;4.22;;;6.90;99.90;;;;;;5071434;28;20723;-58
2020/12/21 05:15:30;;;;;;;5.03;4.15;;;6.90;99.90;;;;;;5071077;28;20642;-58
2020/12/21 05:18:06;;;;;;;4.50;4.10;;;6.90;99.90;;;;;;5072332;28;20189;-59
2020/12/21 05:20:33;;;;;;;4.93;4.40;;;6.90;99.90;;;;;;5071326;28;20653;-58
2020/12/21 05:22:59;;;;;;;4.90;4.50;;;7.00;99.90;;;;;;5071038;28;20543;-58
2020/12/21 05:25:24;;;;;;;4.57;4.13;;;7.10;99.90;;;;;;5070853;28;20212;-58
2020/12/21 05:27:50;;;;;;;5.03;4.50;;;6.90;99.90;;;;;;5070730;28;20173;-58
2020/12/21 05:30:16;;;;;;;5.20;4.70;;;6.90;99.90;;;;;;5070676;28;20193;-58
2020/12/21 05:32:42;;;;;;;5.00;4.60;;;6.90;99.90;;;;;;5070912;28;20253;-58
2020/12/21 05:35:09;;;;;;;5.10;4.60;;;7.00;99.90;;;;;;5070958;28;20193;-58
2020/12/21 05:37:37;;;;;;;5.35;4.28;;;7.30;99.90;;;;;;5070918;28;20295;-58
2020/12/21 05:40:05;;;;;;;5.10;4.55;;;7.30;99.90;;;;;;5070857;28;20611;-58
2020/12/21 05:42:31;;;;;;;4.88;4.45;;;7.10;99.90;;;;;;5070429;28;20672;-58
2020/12/21 05:44:57;;;;;;;4.43;4.00;;;7.20;99.90;;;;;;5071981;28;20219;-58
2020/12/21 05:47:27;;;;;;;5.47;4.38;;;7.10;99.90;;;;;;5070881;28;20223;-58
2020/12/21 05:49:55;;;;;;;5.53;4.35;;;7.10;99.90;;;;;;5070578;28;20196;-58
2020/12/21 05:52:40;;;;;;;7.68;4.90;;;7.20;99.90;;;;;;5070765;28;20416;-58
2020/12/21 05:55:10;;;;;;;5.15;4.75;;;7.40;99.90;;;;;;5070479;28;20197;-59
2020/12/21 05:57:37;;;;;;;4.47;4.07;;;7.40;99.90;;;;;;5070526;28;20201;-59
2020/12/21 06:00:09;;;;;;;4.82;4.43;;;6.60;99.90;;;;;;5070540;28;20230;-58
2020/12/21 06:02:35;;;;;;;4.90;4.50;;;7.30;99.90;;;;;;5070649;28;20195;-58
2020/12/21 06:05:05;;;;;;;7.57;4.93;;;7.00;99.90;;;;;;5070210;28;20608;-59
2020/12/21 06:07:32;;;;;;;7.53;4.60;;;7.30;99.90;;;;;;5066726;28;20232;-58
2020/12/21 06:10:00;;;;;;;6.03;5.43;;;7.60;99.90;;;;;;5065024;28;20177;-58
2020/12/21 06:12:28;;;;;;;5.85;5.35;;;7.60;99.90;;;;;;5070419;28;20246;-59
2020/12/21 06:15:01;;;;;;;6.05;4.55;;;7.80;99.90;;;;;;5070004;28;20185;-58
2020/12/21 06:17:29;;;;;;;5.45;4.95;;;7.30;99.90;;;;;;5070079;28;20205;-58
2020/12/21 06:20:06;;;;;;;8.15;6.38;;;7.20;99.90;;;;;;5070113;28;20196;-58
2020/12/21 06:22:32;;;;;;;5.82;5.38;;;7.20;99.90;;;;;;5070199;28;20608;-58
2020/12/21 06:24:57;;;;;;;6.40;5.80;;;7.50;99.90;;;;;;5069533;28;20262;-59
2020/12/21 06:27:23;;;;;;;6.83;5.00;;;7.40;99.90;;;;;;5069824;28;20228;-58
2020/12/21 06:29:58;;;;;;;5.83;5.23;;;7.10;99.90;;;;;;5069789;28;20219;-58
2020/12/21 06:32:30;;;;;;;9.88;8.88;;;7.20;99.90;;;;;;5070368;28;20612;-59
2020/12/21 06:34:56;;;;;;;8.25;6.15;;;7.10;99.90;;;;;;5069682;28;20188;-58
2020/12/21 06:37:22;;;;;;;8.77;7.93;;;7.30;99.90;;;;;;5069465;28;20218;-58
2020/12/21 06:40:02;;;;;;;7.00;6.37;;;7.10;99.90;;;;;;5069545;28;20238;-59
2020/12/21 06:42:28;;;;;;;7.00;6.13;;;7.30;99.90;;;;;;5065727;28;20185;-58
2020/12/21 06:44:55;;;;;;;7.10;6.00;;;6.90;99.90;;;;;;5069733;28;20209;-58
2020/12/21 06:47:25;;;;;;;7.53;6.75;;;6.90;99.90;;;;;;5070510;28;20201;-58
2020/12/21 06:49:52;;;;;;;6.72;6.03;;;7.20;99.90;;;;;;5069537;28;20261;-59
2020/12/21 06:52:18;;;;;;;9.30;6.20;;;7.20;99.90;;;;;;5069600;28;20207;-59
2020/12/21 06:54:44;;;;;;;8.38;6.88;;;7.10;99.90;;;;;;5069364;28;20673;-60
2020/12/21 06:57:10;;;;;;;6.65;6.05;;;7.10;99.90;;;;;;5070197;28;20197;-59
2020/12/21 06:59:36;;;;;;;6.82;6.10;;;7.30;99.90;;;;;;5069429;28;20174;-60
2020/12/21 07:02:02;;;;;;;6.13;4.73;;;7.20;99.90;;;;;;5069095;28;20184;-58
2020/12/21 07:04:30;;;;;;;7.30;5.78;;;7.30;99.90;;;;;;5069088;28;20553;-58
2020/12/21 07:06:57;;;;;;;6.72;5.95;;;7.50;99.90;;;;;;5064747;28;20201;-58
2020/12/21 07:09:28;;;;;;;7.50;6.45;;;7.40;99.90;;;;;;5059019;28;20180;-58
2020/12/21 07:12:02;;;;;;;6.97;6.28;;;7.50;99.90;;;;;;5066005;28;20185;-58
2020/12/21 07:14:30;;;;;;;6.68;6.00;;;7.90;99.90;;;;;;5059643;28;20611;-58
2020/12/21 07:17:10;;;;;;;6.50;5.63;;;7.60;99.90;;;;;;5069209;28;20209;-59
2020/12/21 07:19:42;;;;;;;6.85;6.15;;;7.20;99.90;;;;;;5068777;28;20725;-59
2020/12/21 07:22:09;;;;;;;6.90;6.25;;;7.20;99.90;;;;;;5070207;28;20224;-59
2020/12/21 07:24:36;;;;;;;6.50;5.70;;;7.60;99.90;;;;;;5068721;28;20740;-59
2020/12/21 07:27:02;;;;;;;7.63;6.47;;;7.60;99.90;;;;;;5068363;28;20229;-59
2020/12/21 07:29:35;;;;;;;7.03;6.35;;;7.40;99.90;;;;;;5069933;28;20647;-59
2020/12/21 07:32:05;;;;;;;8.32;7.35;;;7.60;99.90;;;;;;5069824;28;20658;-58
2020/12/21 07:34:32;;;;;;;8.00;7.15;;;7.80;99.90;;;;;;5068580;28;20237;-58
2020/12/21 07:36:58;;;;;;;6.65;5.95;;;7.70;99.90;;;;;;5068332;28;20736;-59
2020/12/21 07:39:24;;;;;;;7.67;6.30;;;7.60;99.90;;;;;;5068361;28;20185;-60
2020/12/21 07:41:52;;;;;;;7.20;6.50;;;7.60;99.90;;;;;;5069661;28;20438;-58
2020/12/21 07:44:29;;;;;;;6.25;5.15;;;7.70;99.90;;;;;;5068280;28;20561;-59
2020/12/21 07:47:05;;;;;;;9.60;6.05;;;7.50;99.90;;;;;;5069275;28;20330;-58
2020/12/21 07:49:32;;;;;;;10.75;6.20;;;7.70;99.90;;;;;;5067991;28;20188;-58
2020/12/21 07:52:09;;;;;;;6.70;5.90;;;7.80;99.90;;;;;;5067764;28;20638;-59
2020/12/21 07:54:39;;;;;;;7.18;6.30;;;7.60;99.90;;;;;;5067595;28;20176;-58
2020/12/21 07:57:06;;;;;;;6.55;5.95;;;7.70;99.90;;;;;;5067611;28;20211;-59
2020/12/21 07:59:32;;;;;;;6.40;5.70;;;7.60;99.90;;;;;;5067693;28;20177;-59
2020/12/21 08:02:00;;;;;;;7.05;6.20;;;7.60;99.90;;;;;;5069544;28;20301;-58
2020/12/21 08:04:27;;;;;;;7.20;6.25;;;7.60;99.90;;;;;;5068128;28;20204;-58
2020/12/21 08:06:54;;;;;;;7.68;5.90;;;7.60;99.90;;;;;;5067352;28;20212;-58
2020/12/21 08:09:20;;;;;;;6.57;5.75;;;7.60;99.90;;;;;;5067760;28;20195;-58
2020/12/21 08:11:46;;;;;;;6.17;5.57;;;7.90;99.90;;;;;;5067565;28;20181;-58
2020/12/21 08:14:17;;;;;;;8.73;7.70;;;7.80;99.90;;;;;;5068942;28;20264;-58
2020/12/21 08:16:43;;;;;;;8.75;7.40;;;7.40;99.90;;;;;;5067790;28;20857;-58
2020/12/21 08:19:13;;;;;;;8.88;6.55;;;7.70;99.90;;;;;;5067774;28;20641;-58
2020/12/21 08:21:39;;;;;;;6.93;6.22;;;7.80;99.90;;;;;;5067732;28;20601;-58
2020/12/21 08:24:05;;;;;;;7.43;6.68;;;7.70;99.90;;;;;;5067621;28;20185;-58
2020/12/21 08:26:35;;;;;;;7.60;6.80;;;7.80;99.90;;;;;;5067542;28;20231;-59
2020/12/21 08:29:00;;;;;;;8.38;7.07;;;7.90;99.90;;;;;;5067690;28;20826;-58
2020/12/21 08:31:26;;;;;;;8.20;6.30;;;8.00;99.90;;;;;;5067537;28;20474;-58
2020/12/21 08:34:04;;;;;;;8.77;6.73;;;8.00;99.90;;;;;;5068150;28;20169;-58
2020/12/21 08:36:36;;;;;;;7.28;6.57;;;8.00;99.90;;;;;;5067685;28;20208;-58
2020/12/21 08:39:19;;;;;;;7.60;6.85;;;7.80;99.90;;;;;;5067229;28;20184;-58
2020/12/21 08:41:55;;;;;;;7.90;7.10;;;8.00;99.90;;;;;;5067614;28;20267;-58
2020/12/21 08:44:23;;;;;;;8.10;7.18;;;8.20;99.90;;;;;;5067435;28;20189;-58
2020/12/21 08:46:52;;;;;;;8.32;7.43;;;8.20;99.90;;;;;;5067453;28;20223;-58
2020/12/21 08:49:19;;;;;;;8.82;7.10;;;8.20;99.90;;;;;;5067466;28;20287;-58
2020/12/21 08:51:45;;;;;;;9.55;7.10;;;8.40;99.90;;;;;;5068727;28;20179;-58
2020/12/21 08:54:11;;;;;;;7.45;6.75;;;8.10;99.90;;;;;;5067406;28;20196;-58
2020/12/21 08:56:37;;;;;;;8.97;7.73;;;8.20;99.90;;;;;;5067299;28;20293;-57
2020/12/21 08:59:02;;;;;;;10.87;7.60;;;8.50;99.90;;;;;;5067059;28;20557;-58
2020/12/21 09:01:28;;;;;;;8.73;7.60;;;8.20;99.90;;;;;;5068924;28;20180;-58
2020/12/21 09:03:53;;;;;;;8.10;7.30;;;8.20;99.90;;;;;;5067253;28;20650;-59
2020/12/21 09:06:21;;;;;;;8.17;7.30;;;8.60;99.90;;;;;;5067246;28;20217;-58
2020/12/21 09:08:47;;;;;;;12.57;7.80;;;8.60;99.90;;;;;;5067244;28;20188;-60
2020/12/21 09:11:17;;;;;;;7.85;7.00;;;8.20;99.90;;;;;;5066940;28;20180;-60
2020/12/21 09:13:42;;;;;;;7.22;6.40;;;8.60;99.90;;;;;;5068586;28;20188;-59
2020/12/21 09:16:08;;;;;;;7.60;6.90;;;8.50;99.90;;;;;;5066984;28;20569;-59
2020/12/21 09:18:34;;;;;;;8.20;7.30;;;8.30;99.90;;;;;;5066679;28;20562;-59
2020/12/21 09:21:00;;;;;;;6.30;5.70;;;8.10;99.90;;;;;;5067189;28;20398;-60
2020/12/21 09:23:26;;;;;;;7.37;6.67;;;8.40;99.90;;;;;;5067474;28;20406;-60
2020/12/21 09:25:51;;;;;;;7.20;6.50;;;8.70;99.90;;;;;;5066798;28;20995;-60
2020/12/21 09:28:17;;;;;;;6.40;5.80;;;8.50;99.90;;;;;;5066944;28;20185;-59
2020/12/21 09:30:42;;;;;;;11.10;6.63;;;8.40;99.90;;;;;;5070387;28;20181;-60
2020/12/21 09:33:08;;;;;;;9.90;7.77;;;8.80;99.90;;;;;;5071238;28;20184;-59
2020/12/21 09:35:34;;;;;;;6.37;5.60;;;8.70;99.90;;;;;;5072185;28;20177;-60
2020/12/21 09:38:00;;;;;;;7.20;6.50;;;8.70;99.90;;;;;;5070333;28;20215;-60
2020/12/21 09:40:27;;;;;;;6.18;5.32;;;8.80;99.90;;;;;;5070486;28;20589;-59
2020/12/21 09:42:52;;;;;;;8.45;5.50;;;9.10;99.90;;;;;;5070690;28;20557;-60
2020/12/21 09:45:18;;;;;;;10.00;5.70;;;8.80;99.90;;;;;;5070319;28;20287;-60
2020/12/21 09:47:45;;;;;;;7.03;4.83;;;9.30;99.90;;;;;;5070321;28;20207;-60
2020/12/21 09:50:11;;;;;;;8.65;5.28;;;9.00;99.90;;;;;;5070477;28;20203;-60
2020/12/21 09:52:37;;;;;;;6.65;5.97;;;9.10;99.90;;;;;;5071710;28;20219;-60
2020/12/21 09:55:02;;;;;;;7.70;4.70;;;9.40;99.90;;;;;;5070106;28;20185;-60
2020/12/21 09:57:28;;;;;;;6.83;5.10;;;9.20;99.90;;;;;;5069935;28;20614;-60
2020/12/21 09:59:54;;;;;;;6.40;4.57;;;9.70;99.90;;;;;;5069787;28;20189;-60
2020/12/21 10:02:20;;;;;;;7.97;4.60;;;9.20;99.90;;;;;;5070101;28;20779;-60
2020/12/21 10:04:46;;;;;;;6.40;4.20;;;9.40;99.90;;;;;;5069714;28;20182;-60
2020/12/21 10:07:12;;;;;;;9.75;4.65;;;9.40;99.90;;;;;;5066551;28;20297;-60
2020/12/21 10:09:37;;;;;;;6.17;3.90;;;9.70;99.90;;;;;;5062696;28;20260;-60
2020/12/21 10:12:03;;;;;;;6.80;4.40;;;9.70;99.90;;;;;;5070218;28;20288;-60
2020/12/21 10:14:29;;;;;;;4.07;3.67;;;10.00;99.90;;;;;;5070123;28;20557;-60
2020/12/21 10:16:54;;;;;;;7.43;4.13;;;9.80;99.90;;;;;;5069883;28;21016;-60
2020/12/21 10:19:20;;;;;;;5.17;4.47;;;9.90;99.90;;;;;;5055012;28;20194;-60
2020/12/21 10:21:46;;;;;;;7.30;4.57;;;10.00;99.90;;;;;;5069605;28;20185;-60
2020/12/21 10:24:12;;;;;;;6.80;4.20;;;9.80;99.90;;;;;;5069450;28;20181;-60
2020/12/21 10:26:38;;;;;;;5.30;4.80;;;10.00;99.90;;;;;;5069770;28;20243;-60
2020/12/21 10:29:04;;;;;;;6.18;3.65;;;9.90;99.90;;;;;;5070013;28;20639;-60
2020/12/21 10:31:30;;;;;;;3.07;2.83;;;10.00;99.90;;;;;;5069254;28;20357;-60
2020/12/21 10:33:55;;;;;;;8.50;5.20;;;10.20;99.90;;;;;;5069570;28;20173;-59
2020/12/21 10:36:21;;;;;;;7.43;5.10;;;10.20;99.90;;;;;;5069605;28;20406;-59
2020/12/21 10:38:47;;;;;;;4.00;3.63;;;10.30;99.90;;;;;;5068950;28;20182;-59
2020/12/21 10:41:13;;;;;;;3.80;3.50;;;10.40;99.90;;;;;;5068454;28;20189;-59
2020/12/21 10:43:38;;;;;;;3.80;3.40;;;10.20;99.90;;;;;;5069163;28;20207;-59
2020/12/21 10:46:04;;;;;;;5.20;3.93;;;10.30;99.90;;;;;;5069696;28;20217;-59
2020/12/21 10:48:30;;;;;;;4.90;3.70;;;10.30;99.90;;;;;;5069006;28;20181;-59
2020/12/21 10:50:55;;;;;;;4.70;3.10;;;10.20;99.90;;;;;;5069457;28;20185;-60
2020/12/21 10:53:24;;;;;;;5.53;3.47;;;10.20;99.90;;;;;;5069055;28;20260;-59
2020/12/21 10:55:49;;;;;;;3.20;2.90;;;10.20;99.90;;;;;;5068816;28;20466;-59
2020/12/21 10:58:18;;;;;;;3.70;3.37;;;10.10;99.90;;;;;;5069149;28;20254;-59
2020/12/21 11:00:45;;;;;;;3.83;3.50;;;10.30;99.90;;;;;;5069761;28;20173;-58
2020/12/21 11:03:11;;;;;;;4.43;3.53;;;9.80;99.90;;;;;;5068855;28;20214;-59
2020/12/21 11:05:37;;;;;;;4.20;3.30;;;10.30;99.90;;;;;;5068890;28;20205;-59
2020/12/21 11:08:03;;;;;;;3.97;2.83;;;10.30;99.90;;;;;;5062497;28;20241;-59
2020/12/21 11:10:29;;;;;;;5.60;3.20;;;10.20;99.90;;;;;;5068612;28;20276;-59
2020/12/21 11:12:56;;;;;;;5.10;3.97;;;10.50;99.90;;;;;;5068823;28;20181;-59
2020/12/21 11:15:22;;;;;;;4.90;4.45;;;10.20;99.90;;;;;;5068536;28;20192;-60
2020/12/21 11:17:47;;;;;;;4.80;4.10;;;10.30;99.90;;;;;;5068550;28;20670;-59
2020/12/21 11:20:13;;;;;;;5.70;3.30;;;10.30;99.90;;;;;;5069756;28;20204;-59
2020/12/21 11:22:39;;;;;;;3.77;3.37;;;10.20;99.90;;;;;;5068641;28;20189;-59
2020/12/21 11:25:04;;;;;;;5.30;3.20;;;10.40;99.90;;;;;;5068230;28;20216;-59
2020/12/21 11:27:30;;;;;;;4.57;3.13;;;10.50;99.90;;;;;;5063662;28;20699;-59
2020/12/21 11:29:56;;;;;;;4.23;2.57;;;10.60;99.90;;;;;;5067426;28;20569;-60
2020/12/21 11:32:24;;;;;;;3.33;2.97;;;10.60;99.90;;;;;;5065267;28;20231;-59
2020/12/21 11:34:50;;;;;;;3.35;3.00;;;10.80;99.90;;;;;;5067935;28;20186;-59
2020/12/21 11:37:17;;;;;;;3.30;3.00;;;10.50;99.90;;;;;;5052178;28;20253;-59
2020/12/21 11:39:44;;;;;;;4.90;3.17;;;10.50;99.90;;;;;;5068569;28;20706;-59
2020/12/21 11:42:12;;;;;;;3.80;3.40;;;10.80;99.90;;;;;;5068586;28;20189;-59
2020/12/21 11:44:38;;;;;;;5.05;3.30;;;10.60;99.90;;;;;;5055110;28;20186;-59
2020/12/21 11:47:13;;;;;;;5.87;2.70;;;10.80;99.90;;;;;;5068470;28;20216;-59
2020/12/21 11:49:40;;;;;;;3.67;3.20;;;10.70;99.90;;;;;;5068249;28;20238;-59
2020/12/21 11:52:06;;;;;;;6.80;3.40;;;10.70;99.90;;;;;;5068112;28;20188;-59
2020/12/21 11:54:31;;;;;;;4.00;3.37;;;10.50;99.90;;;;;;5068683;28;20545;-60
2020/12/21 11:56:57;;;;;;;4.63;3.43;;;10.50;99.90;;;;;;5068416;28;20459;-60
2020/12/21 11:59:23;;;;;;;3.27;2.97;;;10.50;99.90;;;;;;5068083;28;20184;-58
2020/12/21 12:01:59;;;;;;;7.10;2.90;;;10.70;99.90;;;;;;5069306;28;20558;-60
2020/12/21 12:04:25;;;;;;;3.72;3.25;;;10.60;99.90;;;;;;5068126;28;20272;-59
2020/12/21 12:06:54;;;;;;;3.65;3.35;;;10.40;99.90;;;;;;5067852;28;20216;-59
2020/12/21 12:09:26;;;;;;;3.70;3.33;;;10.80;99.90;;;;;;5068098;28;20189;-59
2020/12/21 12:11:52;;;;;;;5.00;3.20;;;11.00;99.90;;;;;;5067890;28;20204;-59
2020/12/21 12:14:18;;;;;;;3.22;2.92;;;10.90;99.90;;;;;;5069524;28;20185;-58
2020/12/21 12:16:44;;;;;;;2.70;2.50;;;11.00;99.90;;;;;;5067651;28;20267;-60
2020/12/21 12:19:10;;;;;;;2.93;2.50;;;11.00;99.90;;;;;;5067947;28;20433;-59
2020/12/21 12:21:35;;;;;;;4.30;2.83;;;10.80;99.90;;;;;;5067695;28;20277;-60
2020/12/21 12:24:01;;;;;;;2.77;2.57;;;11.00;99.90;;;;;;5067750;28;20196;-60
2020/12/21 12:26:27;;;;;;;3.40;3.10;;;10.90;99.90;;;;;;5067956;28;20224;-60
2020/12/21 12:28:56;;;;;;;3.77;3.30;;;11.00;99.90;;;;;;5051741;28;20265;-60
2020/12/21 12:31:22;;;;;;;5.70;3.40;;;11.20;99.90;;;;;;5047538;28;20170;-60
2020/12/21 12:33:49;;;;;;;3.40;2.90;;;11.10;99.90;;;;;;5060966;28;20178;-60
2020/12/21 12:36:16;;;;;;;3.30;3.00;;;11.20;99.90;;;;;;5048990;28;20194;-60
2020/12/21 12:38:42;;;;;;;4.10;2.97;;;11.20;99.90;;;;;;5063869;28;20266;-60
2020/12/21 12:41:08;;;;;;;3.40;2.87;;;11.00;99.90;;;;;;5068004;28;20216;-60
2020/12/21 12:43:33;;;;;;;3.57;3.00;;;11.20;99.90;;;;;;5069614;28;20165;-59
2020/12/21 12:46:02;;;;;;;3.93;3.20;;;11.10;99.90;;;;;;5069367;28;20323;-60
2020/12/21 12:48:27;;;;;;;4.47;3.22;;;11.50;99.90;;;;;;5067670;28;20185;-59
2020/12/21 12:50:53;;;;;;;3.73;3.30;;;11.50;99.90;;;;;;5067447;28;20174;-58
2020/12/21 12:53:19;;;;;;;4.07;3.77;;;11.70;99.90;;;;;;5068407;28;20636;-59